sensor_id;sensor_type;location;lat;lon;timestamp;P1;durP1;ratioP1;P2;durP2;ratioP2
43682;SDS011;29285;52.128;21.060;2022-11-11T00:00:30;14.65;;;9.13;;
43682;SDS011;29285;52.128;21.060;2022-11-11T00:05:33;22.55;;;10.70;;
43682;SDS011;29285;52.128;21.060;2022-11-11T00:10:35;12.18;;;9.13;;
43682;SDS011;29285;52.128;21.060;2022-11-11T00:15:36;16.70;;;10.35;;
43682;SDS011;29285;52.128;21.060;2022-11-11T00:20:38;15.15;;;9.73;;
43682;SDS011;29285;52.128;21.060;2022-11-11T00:25:59;23.52;;;10.10;;
43682;SDS011;29285;52.128;21.060;2022-11-11T00:31:06;13.93;;;9.95;;
43682;SDS011;29285;52.128;21.060;2022-11-11T00:36:06;18.95;;;10.32;;
43682;SDS011;29285;52.128;21.060;2022-11-11T00:41:08;17.12;;;10.58;;
43682;SDS011;29285;52.128;21.060;2022-11-11T00:46:10;13.68;;;9.28;;
43682;SDS011;29285;52.128;21.060;2022-11-11T00:51:32;15.58;;;10.82;;
43682;SDS011;29285;52.128;21.060;2022-11-11T00:56:33;15.10;;;9.93;;
43682;SDS011;29285;52.128;21.060;2022-11-11T01:01:39;14.43;;;9.20;;
43682;SDS011;29285;52.128;21.060;2022-11-11T01:06:40;12.37;;;8.13;;
43682;SDS011;29285;52.128;21.060;2022-11-11T01:11:42;19.50;;;10.82;;
43682;SDS011;29285;52.128;21.060;2022-11-11T01:16:43;15.30;;;9.38;;
43682;SDS011;29285;52.128;21.060;2022-11-11T01:21:44;17.67;;;9.98;;
43682;SDS011;29285;52.128;21.060;2022-11-11T01:26:45;15.10;;;9.63;;
43682;SDS011;29285;52.128;21.060;2022-11-11T01:31:47;19.17;;;9.43;;
43682;SDS011;29285;52.128;21.060;2022-11-11T01:36:48;14.40;;;9.68;;
43682;SDS011;29285;52.128;21.060;2022-11-11T01:41:49;17.57;;;9.88;;
43682;SDS011;29285;52.128;21.060;2022-11-11T01:47:00;14.93;;;9.88;;
43682;SDS011;29285;52.128;21.060;2022-11-11T01:57:23;19.32;;;11.25;;
43682;SDS011;29285;52.128;21.060;2022-11-11T02:02:45;21.62;;;10.03;;
43682;SDS011;29285;52.128;21.060;2022-11-11T02:07:53;18.50;;;9.85;;
43682;SDS011;29285;52.128;21.060;2022-11-11T02:12:58;16.02;;;10.53;;
43682;SDS011;29285;52.128;21.060;2022-11-11T02:18:17;17.87;;;10.05;;
43682;SDS011;29285;52.128;21.060;2022-11-11T02:28:44;16.35;;;8.30;;
43682;SDS011;29285;52.128;21.060;2022-11-11T02:33:45;16.77;;;9.38;;
43682;SDS011;29285;52.128;21.060;2022-11-11T02:38:47;19.73;;;10.32;;
43682;SDS011;29285;52.128;21.060;2022-11-11T02:43:48;21.73;;;10.43;;
43682;SDS011;29285;52.128;21.060;2022-11-11T02:48:50;15.32;;;10.03;;
43682;SDS011;29285;52.128;21.060;2022-11-11T02:53:51;17.65;;;10.48;;
43682;SDS011;29285;52.128;21.060;2022-11-11T02:58:54;15.75;;;8.75;;
43682;SDS011;29285;52.128;21.060;2022-11-11T03:03:55;20.02;;;9.65;;
43682;SDS011;29285;52.128;21.060;2022-11-11T03:08:56;15.32;;;10.45;;
43682;SDS011;29285;52.128;21.060;2022-11-11T03:13:58;16.37;;;9.73;;
43682;SDS011;29285;52.128;21.060;2022-11-11T03:19:00;17.67;;;11.00;;
43682;SDS011;29285;52.128;21.060;2022-11-11T03:24:01;19.55;;;10.30;;
43682;SDS011;29285;52.128;21.060;2022-11-11T03:29:03;18.05;;;10.20;;
43682;SDS011;29285;52.128;21.060;2022-11-11T03:34:05;14.55;;;10.10;;
43682;SDS011;29285;52.128;21.060;2022-11-11T03:39:18;15.60;;;9.70;;
43682;SDS011;29285;52.128;21.060;2022-11-11T03:44:19;15.30;;;10.78;;
43682;SDS011;29285;52.128;21.060;2022-11-11T03:49:20;17.50;;;10.32;;
43682;SDS011;29285;52.128;21.060;2022-11-11T03:54:22;17.10;;;9.40;;
43682;SDS011;29285;52.128;21.060;2022-11-11T03:59:23;17.67;;;10.18;;
43682;SDS011;29285;52.128;21.060;2022-11-11T04:04:24;16.62;;;9.60;;
43682;SDS011;29285;52.128;21.060;2022-11-11T04:09:44;14.68;;;9.78;;
43682;SDS011;29285;52.128;21.060;2022-11-11T04:15:04;14.00;;;10.20;;
43682;SDS011;29285;52.128;21.060;2022-11-11T04:20:24;15.38;;;8.78;;
43682;SDS011;29285;52.128;21.060;2022-11-11T04:25:43;13.70;;;9.85;;
43682;SDS011;29285;52.128;21.060;2022-11-11T04:30:50;15.83;;;9.78;;
43682;SDS011;29285;52.128;21.060;2022-11-11T04:35:51;15.70;;;9.13;;
43682;SDS011;29285;52.128;21.060;2022-11-11T04:40:52;17.73;;;9.53;;
43682;SDS011;29285;52.128;21.060;2022-11-11T04:46:06;13.53;;;8.78;;
43682;SDS011;29285;52.128;21.060;2022-11-11T04:51:07;15.95;;;8.70;;
43682;SDS011;29285;52.128;21.060;2022-11-11T04:56:08;12.98;;;8.40;;
43682;SDS011;29285;52.128;21.060;2022-11-11T05:01:29;15.10;;;9.33;;
43682;SDS011;29285;52.128;21.060;2022-11-11T05:06:48;10.30;;;7.47;;
43682;SDS011;29285;52.128;21.060;2022-11-11T05:12:07;16.17;;;8.45;;
43682;SDS011;29285;52.128;21.060;2022-11-11T05:17:09;14.95;;;7.92;;
43682;SDS011;29285;52.128;21.060;2022-11-11T05:22:29;11.68;;;7.20;;
43682;SDS011;29285;52.128;21.060;2022-11-11T05:27:39;16.55;;;8.30;;
43682;SDS011;29285;52.128;21.060;2022-11-11T05:32:41;17.80;;;8.88;;
43682;SDS011;29285;52.128;21.060;2022-11-11T05:37:43;12.00;;;8.63;;
43682;SDS011;29285;52.128;21.060;2022-11-11T05:42:46;14.23;;;7.95;;
43682;SDS011;29285;52.128;21.060;2022-11-11T05:47:48;14.73;;;8.05;;
43682;SDS011;29285;52.128;21.060;2022-11-11T05:52:49;14.83;;;7.60;;
43682;SDS011;29285;52.128;21.060;2022-11-11T05:57:50;14.33;;;7.90;;
43682;SDS011;29285;52.128;21.060;2022-11-11T06:02:51;16.48;;;9.60;;
43682;SDS011;29285;52.128;21.060;2022-11-11T06:07:52;14.38;;;8.30;;
43682;SDS011;29285;52.128;21.060;2022-11-11T06:12:54;9.48;;;7.65;;
43682;SDS011;29285;52.128;21.060;2022-11-11T06:18:00;12.70;;;7.15;;
43682;SDS011;29285;52.128;21.060;2022-11-11T06:23:03;19.93;;;8.23;;
43682;SDS011;29285;52.128;21.060;2022-11-11T06:28:05;13.62;;;7.83;;
43682;SDS011;29285;52.128;21.060;2022-11-11T06:33:06;18.32;;;7.70;;
43682;SDS011;29285;52.128;21.060;2022-11-11T06:38:09;14.53;;;6.75;;
43682;SDS011;29285;52.128;21.060;2022-11-11T06:43:10;12.60;;;7.85;;
43682;SDS011;29285;52.128;21.060;2022-11-11T06:48:12;14.18;;;8.48;;
43682;SDS011;29285;52.128;21.060;2022-11-11T06:53:14;14.07;;;6.95;;
43682;SDS011;29285;52.128;21.060;2022-11-11T06:58:18;14.20;;;7.62;;
43682;SDS011;29285;52.128;21.060;2022-11-11T07:03:20;11.68;;;7.33;;
43682;SDS011;29285;52.128;21.060;2022-11-11T07:08:22;13.83;;;8.65;;
43682;SDS011;29285;52.128;21.060;2022-11-11T07:13:24;17.05;;;7.30;;
43682;SDS011;29285;52.128;21.060;2022-11-11T07:18:25;13.98;;;8.38;;
43682;SDS011;29285;52.128;21.060;2022-11-11T07:23:27;15.13;;;7.17;;
43682;SDS011;29285;52.128;21.060;2022-11-11T07:28:28;11.18;;;6.08;;
43682;SDS011;29285;52.128;21.060;2022-11-11T07:33:29;13.45;;;6.47;;
43682;SDS011;29285;52.128;21.060;2022-11-11T07:38:30;17.77;;;7.83;;
43682;SDS011;29285;52.128;21.060;2022-11-11T07:43:31;13.38;;;7.25;;
43682;SDS011;29285;52.128;21.060;2022-11-11T07:48:32;12.35;;;6.55;;
43682;SDS011;29285;52.128;21.060;2022-11-11T07:53:34;16.77;;;7.87;;
43682;SDS011;29285;52.128;21.060;2022-11-11T07:58:35;11.38;;;7.60;;
43682;SDS011;29285;52.128;21.060;2022-11-11T08:03:36;13.55;;;6.72;;
43682;SDS011;29285;52.128;21.060;2022-11-11T08:08:39;12.10;;;7.43;;
43682;SDS011;29285;52.128;21.060;2022-11-11T08:13:41;11.80;;;7.70;;
43682;SDS011;29285;52.128;21.060;2022-11-11T08:18:43;14.05;;;7.28;;
43682;SDS011;29285;52.128;21.060;2022-11-11T08:23:44;17.27;;;8.85;;
43682;SDS011;29285;52.128;21.060;2022-11-11T08:28:45;8.83;;;5.78;;
43682;SDS011;29285;52.128;21.060;2022-11-11T08:33:48;12.93;;;7.03;;
43682;SDS011;29285;52.128;21.060;2022-11-11T08:38:49;16.95;;;9.28;;
43682;SDS011;29285;52.128;21.060;2022-11-11T08:43:54;11.85;;;6.50;;
43682;SDS011;29285;52.128;21.060;2022-11-11T08:48:55;13.55;;;6.83;;
43682;SDS011;29285;52.128;21.060;2022-11-11T08:53:56;15.35;;;6.70;;
43682;SDS011;29285;52.128;21.060;2022-11-11T08:58:57;13.18;;;6.50;;
43682;SDS011;29285;52.128;21.060;2022-11-11T09:03:58;11.00;;;5.97;;
43682;SDS011;29285;52.128;21.060;2022-11-11T09:09:00;10.50;;;6.35;;
43682;SDS011;29285;52.128;21.060;2022-11-11T09:14:01;13.60;;;5.72;;
43682;SDS011;29285;52.128;21.060;2022-11-11T09:19:02;9.20;;;5.08;;
43682;SDS011;29285;52.128;21.060;2022-11-11T09:24:04;11.12;;;5.83;;
43682;SDS011;29285;52.128;21.060;2022-11-11T09:29:06;13.53;;;6.08;;
43682;SDS011;29285;52.128;21.060;2022-11-11T09:34:07;8.48;;;5.90;;
43682;SDS011;29285;52.128;21.060;2022-11-11T09:39:08;9.28;;;5.65;;
43682;SDS011;29285;52.128;21.060;2022-11-11T09:44:17;10.85;;;6.28;;
43682;SDS011;29285;52.128;21.060;2022-11-11T09:49:27;12.73;;;5.85;;
43682;SDS011;29285;52.128;21.060;2022-11-11T10:00:02;9.85;;;5.78;;
43682;SDS011;29285;52.128;21.060;2022-11-11T10:05:10;13.45;;;5.70;;
43682;SDS011;29285;52.128;21.060;2022-11-11T10:10:46;11.53;;;5.33;;
43682;SDS011;29285;52.128;21.060;2022-11-11T10:21:15;10.05;;;5.45;;
43682;SDS011;29285;52.128;21.060;2022-11-11T10:26:31;15.40;;;6.05;;
43682;SDS011;29285;52.128;21.060;2022-11-11T10:31:37;9.55;;;5.00;;
43682;SDS011;29285;52.128;21.060;2022-11-11T10:36:46;11.80;;;5.22;;
43682;SDS011;29285;52.128;21.060;2022-11-11T10:41:50;13.93;;;5.78;;
43682;SDS011;29285;52.128;21.060;2022-11-11T10:46:57;11.00;;;4.77;;
43682;SDS011;29285;52.128;21.060;2022-11-11T10:52:21;8.48;;;3.87;;
43682;SDS011;29285;52.128;21.060;2022-11-11T10:57:43;7.70;;;3.92;;
43682;SDS011;29285;52.128;21.060;2022-11-11T11:02:58;10.70;;;4.20;;
43682;SDS011;29285;52.128;21.060;2022-11-11T11:08:19;11.00;;;4.67;;
43682;SDS011;29285;52.128;21.060;2022-11-11T11:13:30;18.07;;;6.47;;
43682;SDS011;29285;52.128;21.060;2022-11-11T11:18:37;10.32;;;4.60;;
43682;SDS011;29285;52.128;21.060;2022-11-11T11:23:39;10.25;;;6.37;;
43682;SDS011;29285;52.128;21.060;2022-11-11T11:28:59;17.70;;;5.45;;
43682;SDS011;29285;52.128;21.060;2022-11-11T11:34:00;9.45;;;4.62;;
43682;SDS011;29285;52.128;21.060;2022-11-11T11:39:02;8.68;;;5.53;;
43682;SDS011;29285;52.128;21.060;2022-11-11T11:44:03;9.60;;;4.65;;
43682;SDS011;29285;52.128;21.060;2022-11-11T11:55:04;16.67;;;6.42;;
43682;SDS011;29285;52.128;21.060;2022-11-11T12:00:14;8.88;;;4.97;;
43682;SDS011;29285;52.128;21.060;2022-11-11T12:10:55;13.70;;;5.80;;
43682;SDS011;29285;52.128;21.060;2022-11-11T12:16:24;16.42;;;6.47;;
43682;SDS011;29285;52.128;21.060;2022-11-11T12:21:54;10.75;;;6.20;;
43682;SDS011;29285;52.128;21.060;2022-11-11T12:38:37;12.10;;;5.28;;
43682;SDS011;29285;52.128;21.060;2022-11-11T13:00:28;13.35;;;4.62;;
43682;SDS011;29285;52.128;21.060;2022-11-11T13:05:43;13.20;;;6.08;;
43682;SDS011;29285;52.128;21.060;2022-11-11T13:11:18;10.18;;;5.35;;
43682;SDS011;29285;52.128;21.060;2022-11-11T13:16:31;10.30;;;4.37;;
43682;SDS011;29285;52.128;21.060;2022-11-11T13:27:06;9.83;;;4.05;;
43682;SDS011;29285;52.128;21.060;2022-11-11T13:32:10;12.68;;;5.53;;
43682;SDS011;29285;52.128;21.060;2022-11-11T13:37:19;10.23;;;6.47;;
43682;SDS011;29285;52.128;21.060;2022-11-11T13:42:35;8.87;;;4.87;;
43682;SDS011;29285;52.128;21.060;2022-11-11T13:47:38;8.50;;;4.92;;
43682;SDS011;29285;52.128;21.060;2022-11-11T13:52:51;10.60;;;5.10;;
43682;SDS011;29285;52.128;21.060;2022-11-11T13:57:58;12.13;;;4.62;;
43682;SDS011;29285;52.128;21.060;2022-11-11T14:13:50;9.83;;;4.58;;
43682;SDS011;29285;52.128;21.060;2022-11-11T14:18:55;8.48;;;3.95;;
43682;SDS011;29285;52.128;21.060;2022-11-11T14:23:56;7.92;;;4.17;;
43682;SDS011;29285;52.128;21.060;2022-11-11T14:28:57;7.55;;;4.10;;
43682;SDS011;29285;52.128;21.060;2022-11-11T14:39:41;12.00;;;5.60;;
43682;SDS011;29285;52.128;21.060;2022-11-11T14:44:50;8.98;;;4.55;;
43682;SDS011;29285;52.128;21.060;2022-11-11T14:49:52;12.65;;;5.47;;
43682;SDS011;29285;52.128;21.060;2022-11-11T15:00:15;7.58;;;4.90;;
43682;SDS011;29285;52.128;21.060;2022-11-11T15:16:33;17.25;;;7.67;;
43682;SDS011;29285;52.128;21.060;2022-11-11T15:33:07;10.10;;;6.37;;
43682;SDS011;29285;52.128;21.060;2022-11-11T15:38:16;11.22;;;6.37;;
43682;SDS011;29285;52.128;21.060;2022-11-11T15:43:26;14.13;;;6.37;;
43682;SDS011;29285;52.128;21.060;2022-11-11T15:48:33;10.15;;;6.78;;
43682;SDS011;29285;52.128;21.060;2022-11-11T15:53:42;9.85;;;6.45;;
43682;SDS011;29285;52.128;21.060;2022-11-11T15:58:43;14.20;;;6.37;;
43682;SDS011;29285;52.128;21.060;2022-11-11T16:03:44;12.70;;;6.83;;
43682;SDS011;29285;52.128;21.060;2022-11-11T16:08:47;10.88;;;6.03;;
43682;SDS011;29285;52.128;21.060;2022-11-11T16:13:52;9.70;;;5.67;;
43682;SDS011;29285;52.128;21.060;2022-11-11T16:19:14;14.18;;;6.28;;
43682;SDS011;29285;52.128;21.060;2022-11-11T16:24:33;10.50;;;6.95;;
43682;SDS011;29285;52.128;21.060;2022-11-11T16:29:38;11.00;;;5.62;;
43682;SDS011;29285;52.128;21.060;2022-11-11T16:34:41;10.03;;;5.83;;
43682;SDS011;29285;52.128;21.060;2022-11-11T16:39:47;9.85;;;6.03;;
43682;SDS011;29285;52.128;21.060;2022-11-11T16:50:01;11.00;;;5.78;;
43682;SDS011;29285;52.128;21.060;2022-11-11T16:55:20;14.13;;;7.47;;
43682;SDS011;29285;52.128;21.060;2022-11-11T17:00:29;10.82;;;6.17;;
43682;SDS011;29285;52.128;21.060;2022-11-11T17:11:10;12.40;;;6.80;;
43682;SDS011;29285;52.128;21.060;2022-11-11T17:16:11;14.98;;;8.10;;
43682;SDS011;29285;52.128;21.060;2022-11-11T17:21:12;13.88;;;6.53;;
43682;SDS011;29285;52.128;21.060;2022-11-11T17:26:13;10.82;;;6.87;;
43682;SDS011;29285;52.128;21.060;2022-11-11T17:31:17;12.83;;;7.70;;
43682;SDS011;29285;52.128;21.060;2022-11-11T17:36:17;12.58;;;7.40;;
43682;SDS011;29285;52.128;21.060;2022-11-11T17:41:18;16.20;;;8.20;;
43682;SDS011;29285;52.128;21.060;2022-11-11T17:46:19;11.53;;;7.22;;
43682;SDS011;29285;52.128;21.060;2022-11-11T17:51:21;12.82;;;8.05;;
43682;SDS011;29285;52.128;21.060;2022-11-11T17:56:23;13.50;;;7.57;;
43682;SDS011;29285;52.128;21.060;2022-11-11T18:01:26;17.98;;;7.72;;
43682;SDS011;29285;52.128;21.060;2022-11-11T18:06:27;13.30;;;7.55;;
43682;SDS011;29285;52.128;21.060;2022-11-11T18:11:29;14.95;;;8.53;;
43682;SDS011;29285;52.128;21.060;2022-11-11T18:16:30;11.80;;;7.75;;
43682;SDS011;29285;52.128;21.060;2022-11-11T18:21:31;14.50;;;7.42;;
43682;SDS011;29285;52.128;21.060;2022-11-11T18:26:32;16.93;;;8.28;;
43682;SDS011;29285;52.128;21.060;2022-11-11T18:31:33;12.88;;;9.13;;
43682;SDS011;29285;52.128;21.060;2022-11-11T18:36:35;14.98;;;8.90;;
43682;SDS011;29285;52.128;21.060;2022-11-11T18:41:37;15.05;;;8.23;;
43682;SDS011;29285;52.128;21.060;2022-11-11T18:46:38;14.60;;;8.95;;
43682;SDS011;29285;52.128;21.060;2022-11-11T18:51:39;11.50;;;8.43;;
43682;SDS011;29285;52.128;21.060;2022-11-11T18:56:41;16.70;;;9.73;;
43682;SDS011;29285;52.128;21.060;2022-11-11T19:01:42;16.82;;;9.88;;
43682;SDS011;29285;52.128;21.060;2022-11-11T19:06:43;11.08;;;6.03;;
43682;SDS011;29285;52.128;21.060;2022-11-11T19:11:45;16.20;;;9.20;;
43682;SDS011;29285;52.128;21.060;2022-11-11T19:16:46;15.08;;;9.38;;
43682;SDS011;29285;52.128;21.060;2022-11-11T19:21:47;15.23;;;9.58;;
43682;SDS011;29285;52.128;21.060;2022-11-11T19:26:48;15.05;;;9.20;;
43682;SDS011;29285;52.128;21.060;2022-11-11T19:31:50;13.60;;;8.68;;
43682;SDS011;29285;52.128;21.060;2022-11-11T19:36:51;13.03;;;9.90;;
43682;SDS011;29285;52.128;21.060;2022-11-11T19:41:52;13.95;;;9.25;;
43682;SDS011;29285;52.128;21.060;2022-11-11T19:46:53;17.40;;;12.47;;
43682;SDS011;29285;52.128;21.060;2022-11-11T19:51:54;16.90;;;10.58;;
43682;SDS011;29285;52.128;21.060;2022-11-11T19:56:55;17.23;;;11.05;;
43682;SDS011;29285;52.128;21.060;2022-11-11T20:01:56;17.07;;;11.38;;
43682;SDS011;29285;52.128;21.060;2022-11-11T20:06:57;16.23;;;11.22;;
43682;SDS011;29285;52.128;21.060;2022-11-11T20:11:58;14.58;;;10.93;;
43682;SDS011;29285;52.128;21.060;2022-11-11T20:16:59;15.00;;;11.65;;
43682;SDS011;29285;52.128;21.060;2022-11-11T20:22:00;19.20;;;11.57;;
43682;SDS011;29285;52.128;21.060;2022-11-11T20:27:03;16.07;;;10.80;;
43682;SDS011;29285;52.128;21.060;2022-11-11T20:32:04;15.85;;;10.08;;
43682;SDS011;29285;52.128;21.060;2022-11-11T20:37:05;18.70;;;11.55;;
43682;SDS011;29285;52.128;21.060;2022-11-11T20:42:06;21.05;;;10.80;;
43682;SDS011;29285;52.128;21.060;2022-11-11T20:47:07;17.40;;;11.03;;
43682;SDS011;29285;52.128;21.060;2022-11-11T20:52:08;12.58;;;9.15;;
43682;SDS011;29285;52.128;21.060;2022-11-11T21:02:15;17.00;;;9.08;;
43682;SDS011;29285;52.128;21.060;2022-11-11T21:07:16;17.50;;;10.45;;
43682;SDS011;29285;52.128;21.060;2022-11-11T21:12:17;17.02;;;10.95;;
43682;SDS011;29285;52.128;21.060;2022-11-11T21:17:18;21.52;;;10.60;;
43682;SDS011;29285;52.128;21.060;2022-11-11T21:22:20;17.55;;;10.28;;
43682;SDS011;29285;52.128;21.060;2022-11-11T21:27:21;19.45;;;11.12;;
43682;SDS011;29285;52.128;21.060;2022-11-11T21:32:22;17.60;;;9.90;;
43682;SDS011;29285;52.128;21.060;2022-11-11T21:37:23;19.20;;;10.80;;
43682;SDS011;29285;52.128;21.060;2022-11-11T21:42:25;15.95;;;9.85;;
43682;SDS011;29285;52.128;21.060;2022-11-11T21:47:26;18.50;;;9.48;;
43682;SDS011;29285;52.128;21.060;2022-11-11T21:52:27;15.70;;;10.48;;
43682;SDS011;29285;52.128;21.060;2022-11-11T21:57:28;22.22;;;10.53;;
43682;SDS011;29285;52.128;21.060;2022-11-11T22:02:29;16.32;;;10.05;;
43682;SDS011;29285;52.128;21.060;2022-11-11T22:07:30;14.18;;;9.65;;
43682;SDS011;29285;52.128;21.060;2022-11-11T22:12:31;14.98;;;9.58;;
43682;SDS011;29285;52.128;21.060;2022-11-11T22:17:34;18.70;;;9.18;;
43682;SDS011;29285;52.128;21.060;2022-11-11T22:22:35;16.48;;;10.10;;
43682;SDS011;29285;52.128;21.060;2022-11-11T22:27:36;19.10;;;10.20;;
43682;SDS011;29285;52.128;21.060;2022-11-11T22:32:37;14.87;;;10.15;;
43682;SDS011;29285;52.128;21.060;2022-11-11T22:37:38;15.48;;;9.40;;
43682;SDS011;29285;52.128;21.060;2022-11-11T22:42:39;16.12;;;10.53;;
43682;SDS011;29285;52.128;21.060;2022-11-11T22:47:40;17.57;;;11.57;;
43682;SDS011;29285;52.128;21.060;2022-11-11T22:52:41;15.57;;;10.93;;
43682;SDS011;29285;52.128;21.060;2022-11-11T22:57:48;18.87;;;10.15;;
43682;SDS011;29285;52.128;21.060;2022-11-11T23:02:49;17.40;;;11.15;;
43682;SDS011;29285;52.128;21.060;2022-11-11T23:07:51;17.73;;;11.30;;
43682;SDS011;29285;52.128;21.060;2022-11-11T23:12:53;17.87;;;9.90;;
43682;SDS011;29285;52.128;21.060;2022-11-11T23:17:56;20.08;;;10.32;;
43682;SDS011;29285;52.128;21.060;2022-11-11T23:22:58;15.05;;;10.25;;
43682;SDS011;29285;52.128;21.060;2022-11-11T23:28:00;16.73;;;11.18;;
43682;SDS011;29285;52.128;21.060;2022-11-11T23:33:01;17.20;;;9.90;;
43682;SDS011;29285;52.128;21.060;2022-11-11T23:38:02;15.25;;;10.85;;
43682;SDS011;29285;52.128;21.060;2022-11-11T23:43:03;14.58;;;9.43;;
43682;SDS011;29285;52.128;21.060;2022-11-11T23:48:04;17.37;;;9.65;;
43682;SDS011;29285;52.128;21.060;2022-11-11T23:53:05;13.50;;;9.55;;
43682;SDS011;29285;52.128;21.060;2022-11-11T23:58:07;14.93;;;9.00;;
